createdAt,value
2022-10-13T15:31:12.024Z,42.13
2022-10-13T15:44:06.968Z,42.00
2022-10-13T15:46:33.377Z,42.39
2022-10-13T15:48:59.810Z,42.85
2022-10-13T15:51:29.564Z,43.26
2022-10-13T15:53:56.136Z,43.58
2022-10-13T15:56:22.987Z,43.78
2022-10-13T15:58:49.431Z,43.99
2022-10-13T16:01:15.946Z,44.33
2022-10-13T16:03:43.708Z,44.28
2022-10-13T16:06:11.719Z,44.53
2022-10-13T16:08:39.577Z,44.88
2022-10-13T16:11:15.150Z,45.02
2022-10-13T16:13:45.538Z,45.29
2022-10-13T16:16:12.580Z,45.39
2022-10-13T16:18:40.036Z,45.50
2022-10-13T16:21:17.422Z,45.86
2022-10-13T16:23:45.633Z,46.16
2022-10-13T16:26:12.257Z,46.23
2022-10-13T16:28:39.026Z,46.28
2022-10-13T16:31:08.349Z,46.55
2022-10-13T16:33:37.069Z,46.84
2022-10-13T16:36:06.282Z,46.99
2022-10-13T16:38:32.723Z,47.34
2022-10-13T16:41:06.108Z,47.45
2022-10-13T16:43:33.359Z,47.65
2022-10-13T16:46:02.991Z,47.71
2022-10-13T16:48:31.904Z,47.91
2022-10-13T16:51:00.355Z,47.91
2022-10-13T16:53:29.683Z,48.05
2022-10-13T16:55:56.350Z,48.25
2022-10-13T16:58:22.989Z,48.20
2022-10-13T17:00:49.658Z,48.26
2022-10-13T17:03:16.242Z,48.43
2022-10-13T17:05:45.281Z,48.47
2022-10-13T17:08:11.590Z,48.85
2022-10-13T17:10:37.910Z,48.89
2022-10-13T17:13:04.603Z,48.98
2022-10-13T17:15:31.532Z,49.16
2022-10-13T17:17:58.197Z,49.16
2022-10-13T17:20:24.884Z,49.23
2022-10-13T17:22:51.991Z,49.51
2022-10-13T17:25:19.288Z,49.53
2022-10-13T17:27:45.803Z,49.71
2022-10-13T17:30:12.262Z,50.07
2022-10-13T17:32:38.887Z,50.03
2022-10-13T17:35:06.324Z,50.34
2022-10-13T17:37:32.880Z,50.32
2022-10-13T17:39:59.736Z,50.39
2022-10-13T17:42:28.672Z,50.59
2022-10-13T17:44:55.466Z,50.60
2022-10-13T17:47:22.409Z,50.71
2022-10-13T17:49:49.654Z,50.96
2022-10-13T17:52:17.355Z,51.15
2022-10-13T17:54:46.000Z,51.39
2022-10-13T17:57:12.845Z,51.68
2022-10-13T17:59:39.276Z,51.80
2022-10-13T18:02:06.388Z,52.05
2022-10-13T18:04:33.590Z,52.31
2022-10-13T18:07:00.225Z,52.58
2022-10-13T18:09:26.853Z,52.78
2022-10-13T18:11:54.215Z,53.00
2022-10-13T18:14:23.507Z,53.20
2022-10-13T18:16:52.253Z,53.29
2022-10-13T18:19:20.028Z,53.49
2022-10-13T18:21:46.620Z,53.51
2022-10-13T18:24:13.441Z,53.64
2022-10-13T18:26:40.486Z,53.76
2022-10-13T18:29:09.889Z,53.64
2022-10-13T18:31:40.354Z,53.55
2022-10-13T18:34:11.035Z,53.48
2022-10-13T18:36:48.551Z,53.48
2022-10-13T18:39:16.594Z,53.48
2022-10-13T18:41:45.714Z,53.64
2022-10-13T18:44:12.761Z,53.72
2022-10-13T18:46:40.139Z,53.69
2022-10-13T18:49:09.856Z,53.70
2022-10-13T18:51:39.371Z,53.58
2022-10-13T18:54:07.500Z,53.72
2022-10-13T18:56:36.254Z,53.80
2022-10-13T18:59:04.678Z,53.87
2022-10-13T19:01:33.458Z,53.95
2022-10-13T19:04:00.707Z,54.19
2022-10-13T19:06:29.996Z,54.14
2022-10-13T19:09:02.975Z,54.03
2022-10-13T19:11:32.325Z,54.12
2022-10-13T19:14:00.289Z,54.18
2022-10-13T19:16:30.014Z,54.44
2022-10-13T19:18:58.264Z,54.53
2022-10-13T19:21:26.592Z,54.60
2022-10-13T19:23:53.476Z,54.93
2022-10-13T19:26:26.049Z,54.97
2022-10-13T19:29:04.551Z,54.97
2022-10-13T19:31:32.833Z,55.11
2022-10-13T19:34:01.548Z,55.18
2022-10-13T19:36:35.448Z,55.12
2022-10-13T19:39:06.114Z,55.25
2022-10-13T19:41:33.909Z,55.40
2022-10-13T19:44:00.881Z,55.57
2022-10-13T19:46:39.116Z,55.59
2022-10-13T19:49:06.136Z,55.65
2022-10-13T19:51:34.158Z,55.58
2022-10-13T19:54:01.574Z,55.81
2022-10-13T19:56:30.913Z,55.84
2022-10-13T19:58:57.346Z,55.93
2022-10-13T20:01:24.116Z,56.15
2022-10-13T20:03:52.876Z,56.33
2022-10-13T20:06:20.701Z,56.21
2022-10-13T20:08:48.116Z,56.15
2022-10-13T20:11:23.038Z,56.50
2022-10-13T20:13:52.192Z,56.81
2022-10-13T20:16:22.297Z,56.88
2022-10-13T20:18:55.344Z,57.14
2022-10-13T20:21:23.584Z,57.10
2022-10-13T20:23:51.156Z,56.99
2022-10-13T20:26:19.613Z,57.01
2022-10-13T20:28:49.271Z,57.06
2022-10-13T20:31:18.498Z,57.30
2022-10-13T20:33:46.500Z,57.19
2022-10-13T20:36:15.673Z,57.25
2022-10-13T20:38:42.373Z,57.41
2022-10-13T20:41:17.676Z,57.44
2022-10-13T20:43:45.377Z,57.50
2022-10-13T20:46:12.054Z,57.56
2022-10-13T20:49:08.808Z,57.80
2022-10-13T20:51:26.663Z,57.86
2022-10-13T20:53:53.763Z,58.21
2022-10-13T20:56:24.934Z,58.28
2022-10-13T20:58:51.870Z,58.64
2022-10-13T21:01:20.625Z,58.88
2022-10-13T21:03:51.681Z,59.12
2022-10-13T21:06:17.997Z,58.86
2022-10-13T21:08:45.139Z,58.80
2022-10-13T21:11:14.597Z,59.06
2022-10-13T21:13:43.677Z,58.77
2022-10-13T21:16:28.492Z,58.92
2022-10-13T21:18:56.750Z,58.82
2022-10-13T21:21:29.614Z,58.79
2022-10-13T21:23:59.216Z,58.82
2022-10-13T21:26:27.532Z,59.05
2022-10-13T21:28:54.326Z,58.91
2022-10-13T21:31:22.074Z,58.97
2022-10-13T21:33:49.321Z,59.05
2022-10-13T21:36:21.972Z,59.15
2022-10-13T21:38:52.678Z,59.27
2022-10-13T21:41:19.494Z,59.31
2022-10-13T21:43:46.703Z,59.51
2022-10-13T21:46:16.614Z,59.56
2022-10-13T21:48:43.961Z,59.62
2022-10-13T21:51:18.948Z,59.73
2022-10-13T21:53:50.075Z,59.85
2022-10-13T21:56:17.171Z,59.87
2022-10-13T21:58:44.341Z,59.90
2022-10-13T22:01:11.168Z,59.89
2022-10-13T22:03:37.771Z,59.92
2022-10-13T22:06:10.661Z,60.00
2022-10-13T22:08:40.384Z,60.16
2022-10-13T22:11:14.822Z,60.19
2022-10-13T22:13:41.513Z,60.11
2022-10-13T22:16:09.626Z,59.94
2022-10-13T22:18:41.496Z,60.09
2022-10-13T22:21:11.818Z,60.09
2022-10-13T22:23:38.540Z,60.13
2022-10-13T22:26:05.000Z,60.30
2022-10-13T22:28:36.809Z,60.44
2022-10-13T22:31:05.450Z,61.07
2022-10-13T22:33:33.697Z,60.89
2022-10-13T22:36:00.160Z,60.84
2022-10-13T22:38:26.526Z,60.71
2022-10-13T22:40:53.625Z,60.63
2022-10-13T22:43:20.249Z,60.86
2022-10-13T22:45:51.181Z,60.89
2022-10-13T22:48:17.638Z,60.74
2022-10-13T22:50:44.751Z,60.68
2022-10-13T22:53:11.233Z,60.87
2022-10-13T22:55:39.053Z,60.79
2022-10-13T22:58:05.447Z,60.75
2022-10-13T23:00:34.408Z,60.88
2022-10-13T23:03:01.058Z,60.83
2022-10-13T23:05:27.619Z,60.90
2022-10-13T23:07:54.385Z,60.84
2022-10-13T23:10:22.178Z,60.89
2022-10-13T23:12:48.916Z,60.99
2022-10-13T23:15:15.606Z,61.13
2022-10-13T23:17:42.395Z,61.26
2022-10-13T23:20:09.006Z,61.15
2022-10-13T23:22:35.974Z,61.07
2022-10-13T23:25:02.383Z,60.92
2022-10-13T23:27:28.858Z,60.94
2022-10-13T23:29:55.287Z,61.00
2022-10-13T23:32:24.810Z,61.26
2022-10-13T23:34:51.339Z,61.39
2022-10-13T23:37:19.674Z,61.36
2022-10-13T23:39:46.435Z,61.44
2022-10-13T23:42:13.012Z,61.43
2022-10-13T23:44:39.495Z,61.43
2022-10-13T23:47:05.884Z,61.52
2022-10-13T23:49:32.386Z,61.74
2022-10-13T23:51:58.704Z,61.53
2022-10-13T23:54:25.320Z,61.34
2022-10-13T23:56:51.665Z,61.46
2022-10-13T23:59:18.629Z,61.55
